Time;durP1;ratioP1;P1;durP2;ratioP2;P2;SDS_P1;SDS_P2;PMS_P1;PMS_P2;Temp;Humidity;BMP_temperature;BMP_pressure;BME280_temperature;BME280_humidity;BME280_pressure;Samples;Min_cycle;Max_cycle;Signal;HPM_P1;HPM_P2
2022/12/12 00:01:44;;;;;;;9.53;7.80;;;14.20;91.10;;;;;;4126366;28;20226;-76
2022/12/12 00:03:46;;;;;;;9.80;6.80;;;14.10;91.20;;;;;;4129956;28;20241;-76
2022/12/12 00:05:49;;;;;;;8.77;6.73;;;14.10;91.10;;;;;;4130046;28;20214;-76
2022/12/12 00:07:51;;;;;;;9.70;6.97;;;14.10;91.00;;;;;;4130784;28;20291;-75
2022/12/12 00:09:53;;;;;;;8.17;6.63;;;14.10;91.30;;;;;;4130399;28;20221;-76
2022/12/12 00:11:56;;;;;;;11.13;7.70;;;14.10;91.20;;;;;;4129881;28;20221;-76
2022/12/12 00:13:59;;;;;;;10.97;7.40;;;14.10;91.10;;;;;;4129855;28;20222;-76
2022/12/12 00:16:03;;;;;;;10.37;7.77;;;14.10;91.10;;;;;;4129716;28;20767;-76
2022/12/12 00:18:06;;;;;;;8.37;6.87;;;14.10;91.20;;;;;;4130128;28;20226;-76
2022/12/12 00:20:09;;;;;;;8.60;7.03;;;14.20;91.10;;;;;;4130202;28;20217;-75
2022/12/12 00:22:11;;;;;;;9.27;7.83;;;14.10;91.20;;;;;;4125686;28;20225;-75
2022/12/12 00:24:13;;;;;;;8.43;7.00;;;14.10;91.10;;;;;;4130363;28;20350;-75
2022/12/12 00:26:19;;;;;;;8.23;6.60;;;14.10;91.10;;;;;;4129769;28;20223;-75
2022/12/12 00:28:22;;;;;;;8.40;7.07;;;14.10;91.10;;;;;;4130171;28;20221;-76
2022/12/12 00:30:26;;;;;;;9.83;6.57;;;14.10;91.20;;;;;;4129931;28;20325;-76
2022/12/12 00:32:29;;;;;;;9.53;6.87;;;14.10;91.20;;;;;;4150088;28;20236;-75
2022/12/12 00:34:31;;;;;;;9.03;6.67;;;14.10;91.00;;;;;;4162308;28;20270;-75
2022/12/12 00:36:34;;;;;;;7.93;6.40;;;14.10;91.10;;;;;;4153085;28;20240;-75
2022/12/12 00:38:36;;;;;;;9.20;7.87;;;14.10;91.00;;;;;;4153482;28;20220;-76
2022/12/12 00:40:39;;;;;;;8.43;6.87;;;14.10;91.00;;;;;;4162344;28;20263;-76
2022/12/12 00:42:41;;;;;;;9.27;6.70;;;14.10;90.90;;;;;;4162420;28;20750;-76
2022/12/12 00:44:43;;;;;;;9.70;7.17;;;14.10;90.90;;;;;;4161960;28;20220;-75
2022/12/12 00:46:47;;;;;;;8.47;6.73;;;14.10;90.70;;;;;;4162675;28;20275;-75
2022/12/12 00:48:50;;;;;;;8.67;6.63;;;14.10;90.80;;;;;;4162638;28;20228;-76
2022/12/12 00:50:52;;;;;;;10.27;6.60;;;14.10;91.00;;;;;;4161379;28;20270;-75
2022/12/12 00:52:56;;;;;;;9.07;6.43;;;14.00;91.20;;;;;;4147735;28;20666;-76
2022/12/12 00:54:58;;;;;;;8.63;6.47;;;14.00;91.20;;;;;;4162277;28;20258;-75
2022/12/12 00:57:01;;;;;;;8.73;6.37;;;14.10;91.00;;;;;;4162543;28;20271;-76
2022/12/12 00:59:03;;;;;;;8.83;7.23;;;14.10;91.30;;;;;;4162440;28;20221;-76
2022/12/12 01:01:09;;;;;;;9.13;6.93;;;14.00;91.10;;;;;;4161963;28;20282;-76
2022/12/12 01:03:13;;;;;;;9.57;7.17;;;14.10;90.90;;;;;;4155740;28;20270;-76
2022/12/12 01:05:16;;;;;;;9.00;7.30;;;14.00;91.20;;;;;;4162722;28;20213;-75
2022/12/12 01:07:18;;;;;;;8.63;6.23;;;14.10;90.90;;;;;;4162330;28;20259;-75
2022/12/12 01:09:21;;;;;;;8.33;6.40;;;14.10;91.00;;;;;;4162196;28;20212;-76
2022/12/12 01:11:23;;;;;;;8.07;5.97;;;14.10;91.00;;;;;;4162392;28;20220;-76
2022/12/12 01:13:27;;;;;;;9.00;6.10;;;14.00;91.20;;;;;;4162315;28;20268;-75
2022/12/12 01:15:29;;;;;;;8.07;5.93;;;14.00;91.10;;;;;;4162005;28;20216;-75
2022/12/12 01:17:36;;;;;;;7.50;6.67;;;14.00;91.10;;;;;;4162107;28;20287;-75
2022/12/12 01:19:40;;;;;;;9.40;6.27;;;14.10;91.00;;;;;;4162209;28;20649;-75
2022/12/12 01:21:43;;;;;;;8.37;6.07;;;14.00;90.70;;;;;;4161889;28;20216;-75
2022/12/12 01:23:45;;;;;;;8.37;6.03;;;14.00;90.90;;;;;;4162525;28;20623;-75
2022/12/12 01:25:48;;;;;;;9.23;6.23;;;14.00;91.10;;;;;;4155023;28;20623;-75
2022/12/12 01:27:50;;;;;;;7.90;6.27;;;14.00;91.10;;;;;;4162420;28;20259;-76
2022/12/12 01:29:54;;;;;;;7.83;5.77;;;14.00;90.80;;;;;;4162133;28;20665;-76
2022/12/12 01:31:57;;;;;;;8.23;6.43;;;14.00;90.90;;;;;;4161293;28;20236;-75
2022/12/12 01:33:59;;;;;;;7.83;6.33;;;14.00;91.20;;;;;;4162662;28;20243;-76
2022/12/12 01:36:03;;;;;;;8.43;6.03;;;14.00;91.00;;;;;;4160144;28;20632;-76
2022/12/12 01:38:06;;;;;;;7.03;5.63;;;14.00;90.90;;;;;;4165149;28;20232;-75
2022/12/12 01:40:13;;;;;;;7.80;6.10;;;14.00;90.90;;;;;;4160770;28;20224;-76
2022/12/12 01:42:18;;;;;;;9.10;6.70;;;14.00;90.80;;;;;;4164882;28;20213;-76
2022/12/12 01:44:41;;;;;;;6.50;5.63;;;14.00;91.10;;;;;;4165088;28;20220;-75
2022/12/12 01:46:44;;;;;;;7.37;5.57;;;14.00;91.10;;;;;;4159532;28;20209;-76
2022/12/12 01:48:52;;;;;;;7.80;5.90;;;13.90;90.80;;;;;;4158778;28;20220;-76
2022/12/12 01:50:55;;;;;;;7.70;5.70;;;14.00;91.10;;;;;;4159594;28;20660;-75
2022/12/12 01:52:59;;;;;;;7.77;5.90;;;13.90;91.00;;;;;;4164625;28;20271;-76
2022/12/12 01:55:04;;;;;;;7.37;5.40;;;13.90;91.20;;;;;;4164365;28;20221;-76
2022/12/12 01:57:09;;;;;;;6.40;5.53;;;13.90;91.50;;;;;;4164692;28;20298;-75
2022/12/12 01:59:15;;;;;;;6.83;5.47;;;13.90;90.90;;;;;;4164534;28;20224;-76
2022/12/12 02:01:19;;;;;;;7.17;5.87;;;13.90;91.10;;;;;;4164444;28;20258;-75
2022/12/12 02:03:21;;;;;;;8.93;6.10;;;13.90;91.30;;;;;;4163689;28;20266;-75
2022/12/12 02:05:28;;;;;;;7.13;5.93;;;13.90;90.90;;;;;;4165123;28;20216;-75
2022/12/12 02:07:30;;;;;;;7.90;6.00;;;13.90;91.00;;;;;;4164574;28;20212;-75
2022/12/12 02:09:35;;;;;;;8.27;5.50;;;13.90;91.20;;;;;;4164478;28;20213;-75
2022/12/12 02:11:43;;;;;;;6.30;5.50;;;13.90;91.00;;;;;;4164492;28;20284;-75
2022/12/12 02:13:46;;;;;;;7.83;5.67;;;13.90;91.00;;;;;;4164283;28;20220;-75
2022/12/12 02:16:00;;;;;;;8.43;6.60;;;13.90;91.00;;;;;;4164589;28;20212;-75
2022/12/12 02:18:11;;;;;;;7.40;5.70;;;13.90;91.00;;;;;;4163478;28;20384;-75
2022/12/12 02:20:50;;;;;;;8.70;5.87;;;13.90;90.90;;;;;;4164432;28;20224;-75
2022/12/12 02:23:26;;;;;;;7.40;5.50;;;13.90;90.80;;;;;;4163458;28;20221;-75
2022/12/12 02:25:48;;;;;;;7.87;5.13;;;13.90;90.90;;;;;;4164207;28;20217;-75
2022/12/12 02:28:23;;;;;;;6.10;5.13;;;13.90;91.00;;;;;;4164714;28;20213;-76
2022/12/12 02:30:37;;;;;;;7.03;5.00;;;13.90;90.80;;;;;;4164236;28;20262;-75
2022/12/12 02:33:14;;;;;;;6.93;5.33;;;13.90;91.00;;;;;;4163949;28;20243;-75
2022/12/12 02:35:22;;;;;;;7.20;5.70;;;13.90;91.00;;;;;;4157298;28;20631;-75
2022/12/12 02:37:32;;;;;;;6.87;5.23;;;13.90;90.90;;;;;;4156429;28;20294;-75
2022/12/12 02:39:42;;;;;;;6.80;5.10;;;13.90;90.80;;;;;;4164221;28;20274;-75
2022/12/12 02:41:50;;;;;;;7.90;6.00;;;13.90;90.70;;;;;;4162910;28;20645;-75
2022/12/12 02:44:06;;;;;;;6.70;5.83;;;13.90;90.80;;;;;;4164073;28;20228;-75
2022/12/12 02:46:14;;;;;;;7.30;5.77;;;13.90;90.80;;;;;;4162778;28;20212;-75
2022/12/12 02:48:26;;;;;;;6.30;4.87;;;13.90;90.90;;;;;;4162918;28;20266;-75
2022/12/12 02:50:31;;;;;;;7.17;5.30;;;13.90;90.70;;;;;;4157358;28;20565;-75
2022/12/12 02:52:34;;;;;;;5.60;4.80;;;13.90;90.80;;;;;;4162132;28;20220;-75
2022/12/12 02:54:37;;;;;;;7.27;5.27;;;13.80;90.60;;;;;;4161835;28;20279;-75
2022/12/12 02:56:47;;;;;;;7.37;5.10;;;13.90;90.90;;;;;;4163936;28;20619;-75
2022/12/12 02:58:49;;;;;;;7.10;5.10;;;13.80;90.90;;;;;;4163827;28;20283;-75
2022/12/12 03:01:09;;;;;;;6.23;5.00;;;13.80;90.80;;;;;;4157539;28;20303;-75
2022/12/12 03:08:52;;;;;;;6.70;5.17;;;13.80;90.90;;;;;;4163794;28;20192;-76
2022/12/12 03:10:58;;;;;;;7.27;5.47;;;13.80;90.90;;;;;;4163593;28;20282;-75
2022/12/12 03:13:09;;;;;;;5.60;4.70;;;13.80;90.90;;;;;;4156897;28;20628;-75
2022/12/12 03:15:17;;;;;;;5.60;4.27;;;13.70;90.90;;;;;;4163372;28;20695;-75
2022/12/12 03:17:28;;;;;;;5.87;4.77;;;13.70;90.90;;;;;;4163389;28;20224;-75
2022/12/12 03:19:41;;;;;;;6.60;5.13;;;13.70;90.90;;;;;;4163603;28;20220;-75
2022/12/12 03:21:49;;;;;;;6.50;5.43;;;13.70;90.90;;;;;;4162038;28;20270;-75
2022/12/12 03:23:57;;;;;;;5.83;4.53;;;13.80;90.60;;;;;;4163522;28;20216;-76
2022/12/12 03:26:05;;;;;;;7.53;5.23;;;13.80;90.70;;;;;;4162849;28;20247;-75
2022/12/12 03:28:14;;;;;;;6.07;5.17;;;13.80;90.60;;;;;;4163296;28;20266;-76
2022/12/12 03:30:19;;;;;;;5.53;4.63;;;13.70;90.70;;;;;;4162902;28;20258;-75
2022/12/12 03:32:25;;;;;;;5.97;5.00;;;13.80;90.60;;;;;;4162874;28;20274;-75
2022/12/12 03:34:35;;;;;;;6.43;4.87;;;13.80;90.70;;;;;;4163307;28;20220;-75
2022/12/12 03:36:41;;;;;;;5.23;4.50;;;13.80;90.80;;;;;;4156667;28;20247;-76
2022/12/12 03:38:55;;;;;;;6.60;5.07;;;13.80;90.80;;;;;;4151347;28;20294;-75
2022/12/12 03:41:01;;;;;;;6.67;4.83;;;13.80;90.80;;;;;;4163123;28;20216;-75
2022/12/12 03:43:07;;;;;;;6.10;4.57;;;13.70;90.80;;;;;;4163714;28;20212;-75
2022/12/12 03:45:14;;;;;;;5.83;4.87;;;13.80;90.60;;;;;;4163630;28;20208;-75
2022/12/12 03:47:21;;;;;;;5.80;4.50;;;13.80;90.80;;;;;;4151450;28;20221;-75
2022/12/12 03:49:29;;;;;;;6.77;5.27;;;13.80;90.70;;;;;;4162422;28;20251;-76
2022/12/12 03:51:37;;;;;;;6.13;4.60;;;13.70;91.00;;;;;;4162823;28;20216;-75
2022/12/12 03:53:45;;;;;;;5.80;4.70;;;13.70;90.60;;;;;;4163080;28;20231;-75
2022/12/12 03:55:53;;;;;;;6.30;4.67;;;13.70;90.70;;;;;;4162747;28;20220;-75
2022/12/12 03:57:59;;;;;;;6.03;4.67;;;13.70;90.70;;;;;;4162265;28;20278;-76
2022/12/12 04:00:05;;;;;;;6.47;4.37;;;13.70;90.70;;;;;;4162711;28;20220;-75
2022/12/12 04:02:11;;;;;;;6.83;4.80;;;13.70;90.70;;;;;;4162497;28;20217;-75
2022/12/12 04:04:17;;;;;;;5.73;4.63;;;13.70;90.60;;;;;;4162904;28;20220;-75
2022/12/12 04:06:28;;;;;;;6.50;4.50;;;13.70;90.40;;;;;;4162742;28;20562;-75
2022/12/12 04:08:33;;;;;;;8.10;5.03;;;13.70;90.70;;;;;;4162903;28;20656;-75
2022/12/12 04:13:27;;;;;;;6.37;4.60;;;13.70;90.60;;;;;;4162992;28;20200;-76
2022/12/12 04:15:50;;;;;;;5.87;4.60;;;13.70;90.60;;;;;;4161784;28;20208;-75
2022/12/12 04:18:12;;;;;;;6.00;4.90;;;13.70;90.30;;;;;;4162444;28;20240;-75
2022/12/12 04:25:25;;;;;;;5.90;4.70;;;13.70;90.20;;;;;;4162716;28;20192;-75
2022/12/12 04:27:34;;;;;;;6.83;5.03;;;13.70;90.60;;;;;;4162442;28;20270;-75
2022/12/12 04:29:42;;;;;;;5.63;4.40;;;13.60;90.70;;;;;;4162793;28;20220;-75
2022/12/12 04:31:50;;;;;;;5.60;4.17;;;13.60;91.10;;;;;;4162701;28;20289;-75
2022/12/12 04:34:00;;;;;;;5.83;4.67;;;13.60;90.70;;;;;;4162905;28;20362;-75
2022/12/12 04:36:05;;;;;;;6.40;5.13;;;13.60;90.80;;;;;;4162265;28;20232;-75
2022/12/12 04:38:10;;;;;;;5.07;4.47;;;13.60;90.90;;;;;;4162253;28;20232;-75
2022/12/12 04:40:18;;;;;;;5.77;4.50;;;13.60;90.80;;;;;;4162411;28;20278;-75
2022/12/12 04:42:23;;;;;;;5.97;4.70;;;13.60;90.40;;;;;;4162463;28;20269;-75
2022/12/12 04:44:28;;;;;;;7.00;4.97;;;13.70;90.40;;;;;;4162767;28;20220;-75
2022/12/12 04:46:33;;;;;;;4.87;4.13;;;13.70;90.30;;;;;;4160909;28;20669;-75
2022/12/12 04:48:40;;;;;;;5.87;4.83;;;13.70;90.30;;;;;;4162360;28;20258;-76
2022/12/12 04:50:47;;;;;;;6.47;4.80;;;13.70;90.50;;;;;;4162206;28;20283;-75
2022/12/12 04:52:52;;;;;;;6.07;4.23;;;13.60;90.30;;;;;;4162083;28;20614;-75
2022/12/12 04:55:00;;;;;;;4.73;4.23;;;13.60;90.40;;;;;;4151327;28;20699;-76
2022/12/12 04:57:08;;;;;;;5.67;4.60;;;13.70;90.40;;;;;;4162453;28;20260;-75
2022/12/12 04:59:10;;;;;;;6.80;4.90;;;13.60;90.50;;;;;;4148712;28;20244;-75
2022/12/12 05:01:17;;;;;;;6.30;4.60;;;13.60;90.40;;;;;;4155167;28;20638;-75
2022/12/12 05:03:27;;;;;;;5.13;4.13;;;13.60;90.40;;;;;;4155669;28;20208;-75
2022/12/12 05:05:40;;;;;;;5.43;4.20;;;13.60;90.30;;;;;;4162730;28;20555;-76
2022/12/12 05:07:46;;;;;;;6.00;4.67;;;13.60;90.50;;;;;;4161943;28;20217;-75
2022/12/12 05:09:49;;;;;;;4.87;4.17;;;13.60;90.40;;;;;;4165081;28;20278;-75
2022/12/12 05:11:51;;;;;;;5.40;4.47;;;13.60;90.40;;;;;;4165139;28;20220;-75
2022/12/12 05:13:55;;;;;;;6.60;4.50;;;13.60;90.20;;;;;;4165483;28;20267;-75
2022/12/12 05:16:00;;;;;;;6.97;4.60;;;13.60;90.20;;;;;;4155789;28;20586;-75
2022/12/12 05:18:07;;;;;;;5.37;4.13;;;13.60;90.20;;;;;;4165366;28;20273;-76
2022/12/12 05:20:10;;;;;;;5.87;4.37;;;13.60;90.20;;;;;;4165021;28;20242;-75
2022/12/12 05:22:12;;;;;;;7.10;4.57;;;13.60;90.50;;;;;;4165153;28;20247;-76
2022/12/12 05:24:15;;;;;;;4.67;4.07;;;13.60;90.20;;;;;;4158449;28;20963;-76
2022/12/12 05:26:21;;;;;;;5.33;4.40;;;13.60;90.50;;;;;;4155869;28;20217;-75
2022/12/12 05:28:24;;;;;;;5.43;4.33;;;13.60;90.20;;;;;;4164456;28;20220;-75
2022/12/12 05:30:27;;;;;;;5.87;4.70;;;13.60;90.20;;;;;;4165158;28;20645;-75
2022/12/12 05:32:30;;;;;;;5.73;4.60;;;13.60;90.10;;;;;;4164893;28;20236;-75
2022/12/12 05:34:32;;;;;;;7.07;4.13;;;13.50;90.20;;;;;;4158905;28;20573;-76
2022/12/12 05:36:34;;;;;;;4.77;3.87;;;13.60;90.10;;;;;;4153688;28;20228;-75
2022/12/12 05:38:37;;;;;;;5.57;4.20;;;13.50;90.40;;;;;;4165018;28;20275;-76
2022/12/12 05:40:39;;;;;;;5.93;4.50;;;13.60;90.20;;;;;;4172093;28;20254;-75
2022/12/12 05:42:42;;;;;;;6.07;4.00;;;13.50;90.10;;;;;;4168796;28;20216;-75
2022/12/12 05:44:44;;;;;;;5.03;4.00;;;13.60;90.20;;;;;;4164749;28;20224;-75
2022/12/12 05:46:48;;;;;;;4.87;4.00;;;13.60;90.20;;;;;;4164736;28;20224;-76
2022/12/12 05:48:52;;;;;;;5.43;4.13;;;13.60;90.20;;;;;;4164882;28;20286;-75
2022/12/12 05:50:55;;;;;;;4.73;4.20;;;13.60;90.20;;;;;;4164804;28;20274;-75
2022/12/12 05:52:57;;;;;;;6.83;4.53;;;13.50;90.20;;;;;;4164884;28;20259;-75
2022/12/12 05:55:00;;;;;;;5.77;4.13;;;13.50;90.10;;;;;;4165094;28;20209;-75
2022/12/12 05:57:02;;;;;;;5.27;4.40;;;13.50;90.10;;;;;;4164994;28;20216;-75
2022/12/12 05:59:05;;;;;;;5.10;4.17;;;13.50;90.20;;;;;;4164215;28;20290;-75
2022/12/12 06:01:08;;;;;;;6.00;3.40;;;13.50;90.30;;;;;;4164593;28;20270;-75
2022/12/12 06:03:11;;;;;;;5.97;4.40;;;13.50;90.10;;;;;;4164618;28;20619;-76
2022/12/12 06:05:14;;;;;;;5.03;4.17;;;13.60;90.20;;;;;;4164382;28;20657;-75
2022/12/12 06:07:16;;;;;;;5.27;4.30;;;13.50;90.10;;;;;;4164804;28;20212;-75
2022/12/12 06:09:18;;;;;;;5.30;4.17;;;13.50;90.20;;;;;;4164411;28;20653;-75
2022/12/12 06:11:21;;;;;;;4.40;3.70;;;13.60;90.20;;;;;;4164460;28;20282;-75
2022/12/12 06:13:23;;;;;;;5.40;4.23;;;13.50;90.10;;;;;;4164731;28;20213;-75
2022/12/12 06:15:26;;;;;;;4.73;4.20;;;13.50;90.10;;;;;;4164209;28;20228;-76
2022/12/12 06:17:28;;;;;;;6.13;4.30;;;13.50;90.10;;;;;;4164265;28;20235;-75
2022/12/12 06:19:32;;;;;;;5.83;4.13;;;13.50;90.10;;;;;;4164178;28;20228;-75
2022/12/12 06:21:34;;;;;;;6.10;4.47;;;13.50;90.10;;;;;;4163303;28;20216;-75
2022/12/12 06:23:37;;;;;;;4.50;3.97;;;13.50;90.10;;;;;;4164201;28;20228;-75
2022/12/12 06:25:39;;;;;;;5.83;4.10;;;13.50;90.20;;;;;;4163868;28;20274;-75
2022/12/12 06:27:41;;;;;;;5.03;4.33;;;13.50;90.10;;;;;;4164459;28;20220;-75
2022/12/12 06:29:44;;;;;;;4.60;3.50;;;13.50;90.00;;;;;;4164066;28;20212;-75
2022/12/12 06:31:46;;;;;;;6.47;4.07;;;13.50;90.10;;;;;;4163960;28;20579;-75
2022/12/12 06:33:49;;;;;;;6.07;4.03;;;13.50;89.20;;;;;;4164291;28;20657;-75
2022/12/12 06:36:00;;;;;;;6.10;4.30;;;13.60;88.90;;;;;;4164164;28;20220;-75
2022/12/12 06:38:02;;;;;;;4.93;4.00;;;13.50;88.80;;;;;;4164119;28;20212;-75
2022/12/12 06:40:09;;;;;;;7.67;4.80;;;13.50;89.00;;;;;;4163734;28;20286;-75
2022/12/12 06:42:11;;;;;;;4.77;3.97;;;13.50;89.00;;;;;;4160776;28;20767;-75
2022/12/12 06:44:14;;;;;;;4.90;3.80;;;13.50;88.70;;;;;;4163792;28;20220;-75
2022/12/12 06:46:19;;;;;;;6.37;4.37;;;13.50;88.60;;;;;;4164239;28;20275;-75
2022/12/12 06:48:21;;;;;;;5.43;3.70;;;13.50;89.00;;;;;;4164106;28;20620;-75
2022/12/12 06:50:24;;;;;;;5.30;4.03;;;13.60;89.50;;;;;;4156711;28;20209;-75
2022/12/12 06:52:27;;;;;;;4.37;3.53;;;13.60;89.80;;;;;;4164233;28;20667;-75
2022/12/12 06:54:30;;;;;;;5.03;4.17;;;13.70;90.00;;;;;;4164099;28;20216;-75
2022/12/12 06:56:32;;;;;;;5.10;4.20;;;13.70;90.10;;;;;;4163978;28;20282;-75
2022/12/12 06:58:35;;;;;;;5.17;3.67;;;13.70;90.00;;;;;;4162445;28;20217;-75
2022/12/12 07:00:38;;;;;;;5.40;4.37;;;13.70;89.60;;;;;;4159788;28;20240;-75
2022/12/12 07:02:40;;;;;;;5.10;4.37;;;13.80;89.70;;;;;;4156463;28;20221;-75
2022/12/12 07:04:42;;;;;;;6.20;4.37;;;13.80;90.00;;;;;;4157278;28;20266;-75
2022/12/12 07:06:45;;;;;;;7.53;4.33;;;13.80;89.60;;;;;;4163664;28;20217;-75
2022/12/12 07:08:49;;;;;;;5.17;3.70;;;13.90;90.00;;;;;;4163711;28;20266;-75
2022/12/12 07:10:51;;;;;;;5.00;4.07;;;13.90;90.10;;;;;;4163479;28;20242;-75
2022/12/12 07:12:54;;;;;;;4.80;4.20;;;13.90;90.30;;;;;;4158666;28;20280;-75
2022/12/12 07:14:56;;;;;;;5.70;4.20;;;13.90;90.30;;;;;;4157527;28;20217;-75
2022/12/12 07:16:59;;;;;;;5.07;4.27;;;14.00;90.20;;;;;;4155330;28;20237;-75
2022/12/12 07:19:01;;;;;;;5.87;4.37;;;14.00;90.30;;;;;;4162519;28;20220;-75
2022/12/12 07:21:05;;;;;;;4.43;3.83;;;14.00;90.10;;;;;;4162459;28;20286;-75
2022/12/12 07:23:08;;;;;;;4.57;3.50;;;14.00;90.40;;;;;;4162498;28;20221;-75
2022/12/12 07:25:12;;;;;;;4.93;3.93;;;14.10;90.40;;;;;;4162574;28;20635;-75
2022/12/12 07:27:14;;;;;;;5.67;4.23;;;14.10;90.40;;;;;;4162981;28;20216;-75
2022/12/12 07:29:16;;;;;;;5.40;4.20;;;14.10;90.40;;;;;;4163362;28;20216;-75
2022/12/12 07:31:20;;;;;;;5.83;3.90;;;14.10;90.70;;;;;;4162738;28;20224;-75
2022/12/12 07:33:23;;;;;;;5.97;3.97;;;14.10;90.70;;;;;;4163570;28;20221;-75
2022/12/12 07:35:25;;;;;;;5.70;4.03;;;14.10;90.40;;;;;;4163099;28;20212;-75
2022/12/12 07:37:27;;;;;;;5.87;4.37;;;14.20;90.50;;;;;;4162725;28;20212;-75
2022/12/12 07:39:30;;;;;;;7.13;5.27;;;14.20;90.90;;;;;;4163075;28;20286;-75
2022/12/12 07:41:34;;;;;;;7.77;5.37;;;14.10;89.10;;;;;;4167563;28;20213;-75
2022/12/12 07:43:38;;;;;;;7.13;5.23;;;14.10;86.10;;;;;;4163508;28;20221;-77
2022/12/12 07:45:44;;;;;;;8.97;5.50;;;14.10;88.30;;;;;;4155425;28;20676;-78
2022/12/12 07:47:46;;;;;;;7.43;5.67;;;14.20;87.20;;;;;;4156528;28;20221;-78
2022/12/12 07:49:49;;;;;;;7.00;4.70;;;14.20;87.50;;;;;;4162905;28;20212;-78
2022/12/12 07:51:52;;;;;;;6.67;4.83;;;14.20;87.70;;;;;;4163017;28;20627;-78
2022/12/12 07:53:54;;;;;;;12.47;5.20;;;14.30;88.90;;;;;;4163523;28;20627;-78
2022/12/12 07:55:57;;;;;;;8.17;5.23;;;14.30;89.60;;;;;;4163160;28;20242;-78
2022/12/12 07:58:01;;;;;;;6.57;5.30;;;14.30;89.70;;;;;;4154441;28;20263;-78
2022/12/12 08:00:05;;;;;;;7.00;4.73;;;14.30;89.00;;;;;;4152866;28;20704;-80
2022/12/12 08:02:08;;;;;;;8.60;5.30;;;14.30;88.60;;;;;;4153204;28;20262;-81
2022/12/12 08:04:11;;;;;;;7.57;4.93;;;14.40;87.00;;;;;;4153234;28;20216;-83
2022/12/12 08:06:15;;;;;;;7.47;4.80;;;14.50;88.80;;;;;;4155327;28;20224;-81
2022/12/12 08:08:18;;;;;;;8.10;5.37;;;14.70;85.90;;;;;;4153639;28;20629;-79
2022/12/12 08:10:20;;;;;;;9.53;5.40;;;14.70;85.20;;;;;;4157197;28;20216;-79
2022/12/12 08:12:22;;;;;;;7.53;4.90;;;14.80;86.10;;;;;;4155207;28;20267;-77
2022/12/12 08:14:26;;;;;;;6.77;5.00;;;15.00;87.60;;;;;;4155470;28;20217;-75
2022/12/12 08:16:29;;;;;;;9.23;5.07;;;15.20;85.60;;;;;;4159492;28;20221;-76
2022/12/12 08:18:32;;;;;;;8.55;5.50;;;15.40;84.70;;;;;;4161544;28;20656;-76
2022/12/12 08:20:34;;;;;;;8.90;4.97;;;15.60;84.00;;;;;;4161277;28;20240;-76
2022/12/12 08:22:36;;;;;;;7.72;5.10;;;15.70;83.40;;;;;;4157457;28;20217;-76
2022/12/12 08:24:39;;;;;;;8.50;4.80;;;15.80;83.60;;;;;;4157090;28;20262;-78
2022/12/12 08:26:42;;;;;;;11.02;5.85;;;15.90;84.40;;;;;;4157781;28;20228;-75
2022/12/12 08:28:48;;;;;;;15.73;6.57;;;16.00;83.50;;;;;;4159277;28;20240;-78
2022/12/12 08:30:51;;;;;;;26.20;7.32;;;16.00;84.40;;;;;;4156731;28;20247;-79
2022/12/12 08:32:56;;;;;;;14.30;6.22;;;16.10;89.30;;;;;;4152386;28;20294;-80
2022/12/12 08:34:59;;;;;;;16.60;5.75;;;16.10;89.60;;;;;;4149095;28;20208;-77
2022/12/12 08:37:02;;;;;;;12.63;5.57;;;16.10;87.90;;;;;;4148578;28;20274;-75
2022/12/12 08:39:07;;;;;;;17.58;5.95;;;16.00;89.70;;;;;;4156521;28;20278;-74
2022/12/12 08:41:10;;;;;;;15.68;6.82;;;16.20;90.10;;;;;;4154580;28;20577;-73
2022/12/12 08:43:12;;;;;;;12.82;6.13;;;16.30;88.70;;;;;;4148537;28;20281;-74
2022/12/12 08:45:15;;;;;;;14.27;6.57;;;16.30;88.00;;;;;;4156013;28;20247;-76
2022/12/12 08:47:18;;;;;;;14.60;6.15;;;16.30;88.80;;;;;;4153191;28;20800;-76
2022/12/12 08:49:23;;;;;;;11.98;5.85;;;16.40;89.40;;;;;;4142563;28;20287;-78
2022/12/12 08:51:26;;;;;;;16.33;6.22;;;16.40;89.30;;;;;;4149430;28;20783;-79
2022/12/12 08:53:28;;;;;;;11.18;5.90;;;16.60;89.70;;;;;;4143741;28;20642;-81
2022/12/12 08:55:31;;;;;;;14.00;6.00;;;16.70;90.30;;;;;;4158121;28;20282;-77
2022/12/12 08:57:33;;;;;;;19.30;6.35;;;16.70;91.30;;;;;;4160404;28;20213;-78
2022/12/12 08:59:35;;;;;;;24.35;7.70;;;16.80;93.30;;;;;;4149379;28;20228;-75
2022/12/12 09:01:38;;;;;;;22.55;6.68;;;16.70;93.50;;;;;;4152678;28;20241;-75
2022/12/12 09:03:41;;;;;;;19.33;6.88;;;16.60;96.40;;;;;;4160852;28;20216;-74
2022/12/12 09:05:44;;;;;;;20.02;8.20;;;16.50;97.50;;;;;;4151078;28;20314;-74
2022/12/12 09:07:46;;;;;;;26.60;9.23;;;16.60;96.80;;;;;;4150507;28;20606;-74
2022/12/12 09:09:49;;;;;;;19.83;7.45;;;16.60;94.70;;;;;;4139321;28;20274;-74
2022/12/12 09:11:51;;;;;;;15.35;7.25;;;16.70;95.20;;;;;;4159444;28;20724;-74
2022/12/12 09:13:53;;;;;;;11.77;6.65;;;16.80;94.40;;;;;;4153729;28;20224;-74
2022/12/12 09:15:56;;;;;;;12.32;6.03;;;16.80;95.40;;;;;;4158084;28;20220;-75
2022/12/12 09:18:22;;;;;;;10.57;5.82;;;16.80;94.90;;;;;;4154456;28;20217;-76
2022/12/12 09:20:26;;;;;;;12.77;5.68;;;17.00;94.60;;;;;;4154459;28;20300;-74
2022/12/12 09:22:28;;;;;;;11.90;5.32;;;17.00;94.60;;;;;;4154966;28;20216;-74
2022/12/12 09:24:30;;;;;;;8.30;5.40;;;17.00;93.50;;;;;;4156143;28;20212;-76
2022/12/12 09:26:33;;;;;;;11.70;5.47;;;17.10;93.20;;;;;;4162782;28;20220;-76
2022/12/12 09:28:35;;;;;;;15.60;5.47;;;17.20;92.80;;;;;;4157882;28;20266;-79
2022/12/12 09:30:40;;;;;;;9.73;5.10;;;17.30;93.00;;;;;;4160186;28;20767;-78
2022/12/12 09:32:43;;;;;;;11.25;5.28;;;17.30;92.70;;;;;;4149552;28;20236;-76
2022/12/12 09:34:46;;;;;;;11.40;5.38;;;17.30;92.40;;;;;;4150695;28;20221;-77
2022/12/12 09:36:50;;;;;;;15.43;5.53;;;17.30;92.00;;;;;;4148117;28;20220;-75
2022/12/12 09:38:52;;;;;;;9.82;4.15;;;17.20;92.30;;;;;;4147873;28;20213;-75
2022/12/12 09:40:57;;;;;;;8.35;5.07;;;17.20;93.20;;;;;;4156529;28;20233;-75
2022/12/12 09:43:00;;;;;;;6.07;4.43;;;17.30;93.20;;;;;;4156612;28;20265;-75
2022/12/12 09:45:06;;;;;;;9.82;4.38;;;17.40;92.50;;;;;;4151103;28;20268;-75
2022/12/12 09:47:15;;;;;;;10.85;5.20;;;17.50;92.60;;;;;;4160927;28;20216;-73
2022/12/12 09:49:26;;;;;;;17.25;4.85;;;17.50;93.10;;;;;;4150656;28;20274;-77
2022/12/12 09:51:28;;;;;;;9.60;5.47;;;17.40;93.00;;;;;;4153792;28;20209;-73
2022/12/12 09:53:32;;;;;;;9.68;4.57;;;17.50;92.60;;;;;;4151487;28;20303;-72
2022/12/12 09:55:40;;;;;;;8.05;4.53;;;17.50;93.10;;;;;;4157037;28;20254;-72
2022/12/12 09:57:46;;;;;;;10.95;4.43;;;17.50;92.70;;;;;;4155769;28;20282;-73
2022/12/12 09:59:55;;;;;;;11.20;5.50;;;17.60;93.40;;;;;;4155678;28;20220;-83
2022/12/12 10:02:05;;;;;;;10.02;4.70;;;18.80;91.10;;;;;;4153464;28;20695;-77
2022/12/12 10:04:20;;;;;;;7.43;4.85;;;18.90;90.50;;;;;;4152421;28;20217;-78
2022/12/12 10:06:23;;;;;;;8.27;4.57;;;19.30;90.20;;;;;;4156027;28;20267;-77
2022/12/12 10:08:37;;;;;;;8.50;4.45;;;19.40;88.70;;;;;;4150487;28;20266;-77
2022/12/12 10:10:44;;;;;;;9.95;4.85;;;19.70;86.80;;;;;;4151918;28;20224;-80
2022/12/12 10:12:47;;;;;;;6.22;4.72;;;19.80;86.20;;;;;;4149700;28;20366;-80
2022/12/12 10:14:53;;;;;;;9.00;4.88;;;19.80;84.70;;;;;;4152231;28;20213;-79
2022/12/12 10:16:58;;;;;;;8.20;4.25;;;20.00;84.10;;;;;;4151705;28;20221;-78
2022/12/12 10:19:07;;;;;;;9.18;4.35;;;20.40;82.80;;;;;;4148730;28;20221;-75
2022/12/12 10:21:15;;;;;;;11.27;4.95;;;20.50;83.50;;;;;;4164351;28;20236;-75
2022/12/12 10:23:26;;;;;;;10.50;4.13;;;20.60;82.90;;;;;;4151593;28;20313;-76
2022/12/12 10:25:40;;;;;;;6.30;4.15;;;20.70;82.00;;;;;;4149312;28;20217;-76
2022/12/12 10:27:43;;;;;;;6.22;4.72;;;20.90;81.30;;;;;;4146713;28;20212;-77
2022/12/12 10:29:48;;;;;;;5.97;4.25;;;20.80;80.50;;;;;;4151454;28;20220;-77
2022/12/12 10:31:59;;;;;;;6.78;4.47;;;20.80;80.30;;;;;;4150207;28;20293;-77
2022/12/12 10:34:14;;;;;;;9.73;4.63;;;20.90;80.30;;;;;;4150616;28;20216;-76
2022/12/12 10:36:27;;;;;;;7.78;4.72;;;21.00;80.10;;;;;;4151217;28;20264;-76
2022/12/12 10:38:44;;;;;;;8.43;4.93;;;20.90;80.00;;;;;;4151378;28;20216;-77
2022/12/12 10:40:58;;;;;;;7.55;4.93;;;21.00;79.90;;;;;;4157519;28;20217;-76
2022/12/12 10:43:05;;;;;;;8.15;4.75;;;21.30;79.00;;;;;;4155643;28;20973;-78
2022/12/12 10:45:32;;;;;;;8.70;4.53;;;21.30;78.00;;;;;;4155390;28;20221;-76
2022/12/12 10:47:34;;;;;;;6.13;4.32;;;21.70;77.10;;;;;;4152851;28;20212;-77
2022/12/12 10:49:37;;;;;;;7.20;3.97;;;21.90;77.30;;;;;;4151613;28;20224;-76
2022/12/12 10:51:40;;;;;;;5.57;4.25;;;21.90;77.70;;;;;;4150989;28;20259;-75
2022/12/12 10:53:44;;;;;;;9.25;4.55;;;21.70;77.10;;;;;;4156109;28;20216;-76
2022/12/12 10:55:52;;;;;;;7.57;4.40;;;21.60;77.80;;;;;;4158172;28;20216;-75
2022/12/12 10:58:02;;;;;;;7.38;3.90;;;21.60;77.70;;;;;;4154104;28;20258;-75
2022/12/12 11:00:24;;;;;;;6.95;3.65;;;21.60;77.50;;;;;;4156584;28;20274;-75
2022/12/12 11:02:38;;;;;;;6.63;3.63;;;21.90;77.30;;;;;;4159059;28;20382;-77
2022/12/12 11:04:40;;;;;;;8.05;4.05;;;21.90;77.20;;;;;;4151855;28;20217;-77
2022/12/12 11:06:46;;;;;;;7.15;4.15;;;22.00;76.80;;;;;;4150672;28;20274;-76